createdAt,value
2023-07-16T00:01:10.740Z,93.40
2023-07-16T00:03:38.217Z,93.40
2023-07-16T00:06:05.709Z,93.30
2023-07-16T00:08:33.289Z,93.40
2023-07-16T00:11:00.911Z,93.50
2023-07-16T00:13:28.662Z,93.70
2023-07-16T00:15:56.169Z,93.60
2023-07-16T00:18:23.619Z,93.80
2023-07-16T00:20:51.241Z,93.70
2023-07-16T00:23:18.742Z,93.80
2023-07-16T00:25:46.461Z,93.70
2023-07-16T00:28:13.978Z,93.80
2023-07-16T00:30:41.493Z,93.70
2023-07-16T00:33:09.140Z,93.70
2023-07-16T00:35:36.719Z,93.70
2023-07-16T00:38:04.252Z,93.70
2023-07-16T00:40:31.778Z,94.30
2023-07-16T00:42:59.278Z,94.10
2023-07-16T00:45:26.824Z,93.90
2023-07-16T00:47:54.372Z,93.90
2023-07-16T00:50:22.048Z,93.80
2023-07-16T00:52:50.489Z,93.90
2023-07-16T00:55:18.053Z,94.00
2023-07-16T00:57:46.601Z,94.10
2023-07-16T01:00:14.538Z,94.20
2023-07-16T01:02:42.131Z,94.30
2023-07-16T01:05:09.881Z,94.50
2023-07-16T01:07:40.946Z,94.50
2023-07-16T01:10:09.394Z,94.50
2023-07-16T01:12:37.810Z,94.60
2023-07-16T01:15:05.728Z,94.80
2023-07-16T01:17:33.229Z,94.90
2023-07-16T01:20:00.839Z,95.10
2023-07-16T01:22:47.347Z,95.20
2023-07-16T01:25:20.447Z,95.30
2023-07-16T01:28:12.704Z,95.40
2023-07-16T01:30:44.933Z,95.40
2023-07-16T01:33:15.596Z,95.70
2023-07-16T01:35:44.151Z,95.70
2023-07-16T01:38:15.034Z,95.70
2023-07-16T01:40:43.164Z,95.80
2023-07-16T01:43:10.669Z,95.90
2023-07-16T01:45:38.248Z,96.00
2023-07-16T01:48:33.533Z,96.10
2023-07-16T01:51:01.209Z,97.00
2023-07-16T01:53:28.978Z,97.90
2023-07-16T01:55:56.676Z,98.50
2023-07-16T01:58:24.522Z,98.70
2023-07-16T02:00:52.265Z,99.30
2023-07-16T02:03:19.881Z,99.70
2023-07-16T02:05:47.405Z,99.90
2023-07-16T02:08:14.969Z,99.90
2023-07-16T02:10:42.496Z,99.90
2023-07-16T02:13:12.419Z,99.90
2023-07-16T02:15:40.007Z,99.90
2023-07-16T02:18:07.592Z,99.90
2023-07-16T02:20:36.516Z,99.90
2023-07-16T02:23:04.233Z,99.90
2023-07-16T02:25:33.167Z,99.90
2023-07-16T02:28:00.593Z,99.90
2023-07-16T02:30:28.327Z,99.90
2023-07-16T02:32:55.868Z,99.90
2023-07-16T02:35:23.413Z,99.90
2023-07-16T02:37:50.984Z,99.90
2023-07-16T02:40:20.233Z,99.90
2023-07-16T02:42:47.688Z,99.90
2023-07-16T02:45:15.167Z,99.90
2023-07-16T02:47:43.380Z,99.90
2023-07-16T02:50:11.441Z,99.90
2023-07-16T02:52:39.190Z,99.90
2023-07-16T02:55:07.058Z,99.90
2023-07-16T02:57:34.600Z,99.90
2023-07-16T03:00:02.099Z,99.90
2023-07-16T03:02:29.661Z,99.90
2023-07-16T03:04:57.167Z,99.90
2023-07-16T03:07:24.760Z,99.90
2023-07-16T03:09:52.315Z,99.90
2023-07-16T03:12:19.936Z,99.90
2023-07-16T03:14:49.067Z,99.90
2023-07-16T03:17:16.770Z,99.90
2023-07-16T03:19:44.413Z,99.90
2023-07-16T03:22:12.035Z,99.90
2023-07-16T03:24:39.652Z,99.90
2023-07-16T03:27:17.443Z,99.90
2023-07-16T03:29:46.961Z,99.90
2023-07-16T03:32:16.704Z,99.90
2023-07-16T03:34:44.185Z,99.90
2023-07-16T03:37:11.690Z,99.90
2023-07-16T03:39:39.192Z,99.90
2023-07-16T03:42:06.794Z,99.90
2023-07-16T03:44:34.520Z,99.90
2023-07-16T03:47:03.923Z,99.90
2023-07-16T03:49:31.556Z,99.90
2023-07-16T03:51:59.047Z,99.90
2023-07-16T03:54:27.273Z,99.90
2023-07-16T03:56:55.280Z,99.90
2023-07-16T03:59:23.596Z,99.90
2023-07-16T04:01:51.535Z,99.90
2023-07-16T04:04:19.038Z,99.90
2023-07-16T04:06:46.574Z,99.90
2023-07-16T04:09:14.169Z,99.90
2023-07-16T04:11:41.658Z,99.90
2023-07-16T04:14:09.114Z,99.90
2023-07-16T04:16:36.666Z,99.90
2023-07-16T04:19:04.095Z,99.90
2023-07-16T04:21:31.664Z,99.90
2023-07-16T04:23:59.132Z,99.90
2023-07-16T04:26:26.692Z,99.90
2023-07-16T04:28:54.120Z,99.90
2023-07-16T04:31:21.763Z,99.90
2023-07-16T04:33:49.317Z,99.90
2023-07-16T04:36:17.640Z,99.90
2023-07-16T04:38:45.295Z,99.90
2023-07-16T04:41:13.938Z,99.90
2023-07-16T04:43:41.499Z,99.90
2023-07-16T04:46:09.048Z,99.90
2023-07-16T04:48:36.606Z,99.90
2023-07-16T04:51:04.081Z,99.90
2023-07-16T04:53:31.551Z,99.90
2023-07-16T04:55:59.015Z,99.90
2023-07-16T04:58:26.481Z,99.90
2023-07-16T05:00:54.019Z,99.90
2023-07-16T05:03:21.571Z,99.90
2023-07-16T05:05:49.102Z,99.50
2023-07-16T05:08:17.108Z,97.70
2023-07-16T05:10:44.617Z,96.40
2023-07-16T05:13:12.162Z,95.20
2023-07-16T05:15:39.815Z,93.50
2023-07-16T05:18:07.389Z,92.30
2023-07-16T05:20:34.852Z,91.20
2023-07-16T05:23:02.732Z,90.60
2023-07-16T05:25:32.533Z,90.30
2023-07-16T05:28:00.319Z,89.00
2023-07-16T05:30:27.864Z,91.00
2023-07-16T05:32:55.455Z,90.10
2023-07-16T05:35:23.120Z,90.00
2023-07-16T05:37:50.593Z,88.80
2023-07-16T05:40:18.091Z,86.50
2023-07-16T05:42:45.608Z,84.50
2023-07-16T05:45:13.108Z,85.40
2023-07-16T05:47:40.629Z,85.00
2023-07-16T05:50:08.883Z,81.80
2023-07-16T05:52:36.379Z,81.00
2023-07-16T05:55:04.172Z,79.70
2023-07-16T05:57:32.087Z,79.70
2023-07-16T05:59:59.516Z,80.30
2023-07-16T06:02:27.061Z,80.20
2023-07-16T06:04:54.508Z,79.30
2023-07-16T06:07:22.053Z,79.60
2023-07-16T06:09:49.645Z,78.70
2023-07-16T06:12:17.157Z,78.10
2023-07-16T06:14:44.705Z,79.20
2023-07-16T06:17:12.199Z,77.50
2023-07-16T06:19:39.759Z,78.40
2023-07-16T06:22:08.396Z,75.90
2023-07-16T06:24:36.353Z,75.30
2023-07-16T06:27:04.162Z,74.80
2023-07-16T06:29:31.616Z,75.60
2023-07-16T06:32:00.202Z,74.40
2023-07-16T06:34:28.001Z,75.50
2023-07-16T06:36:55.569Z,75.50
2023-07-16T06:39:23.053Z,73.90
2023-07-16T06:41:50.475Z,75.20
2023-07-16T06:44:18.023Z,77.30
2023-07-16T06:46:45.578Z,76.80
2023-07-16T06:49:12.965Z,76.90
2023-07-16T06:51:40.431Z,75.20
2023-07-16T06:54:08.944Z,75.50
2023-07-16T06:56:36.494Z,74.40
2023-07-16T06:59:03.996Z,75.50
2023-07-16T07:01:31.771Z,75.30
2023-07-16T07:03:59.400Z,74.50
2023-07-16T07:06:27.010Z,73.70
2023-07-16T07:08:54.619Z,72.00
2023-07-16T07:11:22.171Z,72.80
2023-07-16T07:13:51.678Z,73.70
2023-07-16T07:16:19.644Z,75.60
2023-07-16T07:18:47.431Z,72.10
2023-07-16T07:21:14.991Z,71.90
2023-07-16T07:23:42.515Z,74.40
2023-07-16T07:26:10.033Z,72.30
2023-07-16T07:28:37.521Z,72.80
2023-07-16T07:31:05.143Z,74.00
2023-07-16T07:33:33.677Z,74.40
2023-07-16T07:36:01.306Z,75.50
2023-07-16T07:38:29.787Z,76.40
2023-07-16T07:40:57.354Z,76.60
2023-07-16T07:43:24.825Z,76.40
2023-07-16T07:45:52.318Z,77.20
2023-07-16T07:48:19.968Z,78.00
2023-07-16T07:50:49.805Z,77.10
2023-07-16T07:53:21.676Z,76.60
2023-07-16T07:55:49.151Z,78.00
2023-07-16T07:58:16.724Z,80.20
2023-07-16T08:00:44.173Z,78.20
2023-07-16T08:03:11.808Z,76.90
2023-07-16T08:05:39.401Z,78.30
2023-07-16T08:08:07.037Z,76.30
2023-07-16T08:10:34.900Z,76.10
2023-07-16T08:13:02.461Z,76.90
2023-07-16T08:15:30.045Z,74.70
2023-07-16T08:18:00.435Z,74.70
2023-07-16T08:20:28.395Z,74.00
2023-07-16T08:22:55.864Z,75.10
2023-07-16T08:25:23.372Z,74.60
2023-07-16T08:27:50.916Z,75.80
2023-07-16T08:30:18.470Z,78.50
2023-07-16T08:32:46.020Z,80.20
2023-07-16T08:35:17.525Z,81.40
2023-07-16T08:37:45.299Z,80.60
2023-07-16T08:40:15.836Z,81.10
2023-07-16T08:42:47.235Z,82.30
2023-07-16T08:45:16.945Z,82.70
2023-07-16T08:47:44.533Z,85.50
2023-07-16T08:50:13.875Z,89.10
2023-07-16T08:52:41.455Z,84.80
2023-07-16T08:55:09.355Z,85.40
2023-07-16T08:57:37.841Z,83.90
2023-07-16T09:00:07.313Z,83.80
2023-07-16T09:02:35.019Z,83.30
2023-07-16T09:05:02.960Z,83.80
2023-07-16T09:07:30.455Z,87.30
2023-07-16T09:09:59.914Z,87.20
2023-07-16T09:12:27.816Z,85.00
2023-07-16T09:14:55.325Z,86.70
2023-07-16T09:17:26.788Z,85.00
2023-07-16T09:19:54.724Z,84.60
2023-07-16T09:22:23.659Z,83.90
2023-07-16T09:24:51.077Z,84.10
2023-07-16T09:27:18.645Z,85.00
2023-07-16T09:29:46.182Z,87.50
2023-07-16T09:32:13.816Z,85.80
2023-07-16T09:34:41.480Z,84.70
2023-07-16T09:37:08.926Z,85.60
2023-07-16T09:39:38.549Z,85.20
2023-07-16T09:42:07.628Z,83.30
2023-07-16T09:44:35.947Z,83.60
2023-07-16T09:47:03.670Z,83.90
2023-07-16T09:49:33.774Z,83.50
2023-07-16T09:52:03.452Z,81.80
2023-07-16T09:54:35.810Z,82.70
2023-07-16T09:57:05.775Z,82.60
2023-07-16T09:59:34.936Z,84.50
2023-07-16T10:02:02.661Z,86.00
2023-07-16T10:04:42.380Z,87.00
2023-07-16T10:07:23.823Z,84.40
2023-07-16T10:09:58.689Z,83.10
2023-07-16T10:12:27.686Z,84.20
2023-07-16T10:15:00.330Z,84.20
2023-07-16T10:17:28.540Z,84.50
2023-07-16T10:20:08.176Z,85.10
2023-07-16T10:22:47.818Z,82.40
2023-07-16T10:25:18.429Z,81.50
2023-07-16T10:27:47.798Z,86.70
2023-07-16T10:30:16.374Z,82.50
2023-07-16T10:32:44.876Z,84.00
2023-07-16T10:35:12.741Z,81.40
2023-07-16T10:37:40.851Z,80.30
2023-07-16T10:40:13.530Z,80.10
2023-07-16T10:42:45.232Z,82.20
2023-07-16T10:45:13.734Z,82.70
2023-07-16T10:47:56.788Z,84.00
2023-07-16T10:50:24.607Z,80.60
2023-07-16T10:52:54.024Z,78.70
2023-07-16T10:55:22.036Z,78.40
2023-07-16T10:57:50.538Z,77.60
2023-07-16T11:00:19.185Z,79.10
2023-07-16T11:02:47.544Z,78.10
2023-07-16T11:05:16.054Z,76.70
2023-07-16T11:07:51.350Z,74.30
2023-07-16T11:10:21.089Z,74.50
2023-07-16T11:12:54.145Z,77.30
2023-07-16T11:15:36.981Z,76.20
2023-07-16T11:18:04.846Z,72.60
2023-07-16T11:20:32.574Z,73.30
2023-07-16T11:23:01.819Z,74.00
2023-07-16T11:25:30.244Z,73.00
2023-07-16T11:27:57.858Z,70.40
2023-07-16T11:30:26.572Z,68.10
2023-07-16T11:32:55.196Z,66.40
2023-07-16T11:35:23.022Z,67.80
2023-07-16T11:37:50.590Z,68.70
2023-07-16T11:40:19.998Z,71.70
2023-07-16T11:42:48.106Z,71.70
2023-07-16T11:45:29.401Z,73.70
2023-07-16T11:47:57.124Z,74.20
2023-07-16T11:50:24.822Z,76.50
2023-07-16T11:52:56.488Z,76.50
2023-07-16T11:55:25.273Z,74.00
2023-07-16T11:57:52.855Z,73.40
2023-07-16T12:00:20.404Z,72.70
2023-07-16T12:02:52.806Z,74.60
2023-07-16T12:05:27.959Z,74.00
2023-07-16T12:07:58.395Z,76.20
2023-07-16T12:10:26.060Z,72.10
2023-07-16T12:12:53.546Z,74.60
2023-07-16T12:15:21.069Z,73.80
2023-07-16T12:17:48.670Z,74.40
2023-07-16T12:20:16.166Z,74.60
2023-07-16T12:22:43.689Z,73.50
2023-07-16T12:25:11.345Z,71.80
2023-07-16T12:27:38.924Z,70.10
2023-07-16T12:30:08.874Z,70.90
2023-07-16T12:32:36.491Z,73.90
2023-07-16T12:35:05.441Z,75.10
2023-07-16T12:37:35.564Z,73.80
2023-07-16T12:40:04.487Z,71.40
2023-07-16T12:42:32.138Z,72.80
2023-07-16T12:45:00.082Z,71.70
2023-07-16T12:47:27.659Z,72.40
2023-07-16T12:49:56.315Z,70.40
2023-07-16T12:52:23.874Z,70.40
2023-07-16T12:54:51.314Z,69.90
2023-07-16T12:57:19.116Z,70.00
2023-07-16T12:59:46.626Z,65.40
2023-07-16T13:02:14.179Z,68.90
2023-07-16T13:04:41.696Z,70.30
2023-07-16T13:07:09.725Z,69.00
2023-07-16T13:09:37.158Z,68.30
2023-07-16T13:12:05.006Z,69.30
2023-07-16T13:14:32.581Z,67.90
2023-07-16T13:17:02.492Z,70.40
2023-07-16T13:19:30.263Z,69.50
2023-07-16T13:21:57.731Z,68.60
2023-07-16T13:24:26.893Z,71.80
2023-07-16T13:26:54.732Z,71.30
2023-07-16T13:29:22.298Z,71.20
2023-07-16T13:31:50.271Z,72.60
2023-07-16T13:34:17.733Z,70.40
2023-07-16T13:36:45.198Z,68.90
2023-07-16T13:39:14.517Z,68.30
2023-07-16T13:41:42.093Z,68.80
2023-07-16T13:44:09.592Z,70.70
2023-07-16T13:46:38.782Z,70.20
2023-07-16T13:49:06.608Z,71.20
2023-07-16T13:51:34.080Z,71.90
2023-07-16T13:54:01.539Z,74.10
2023-07-16T13:56:29.120Z,72.70
2023-07-16T13:58:56.570Z,70.90
2023-07-16T14:01:25.933Z,68.50
2023-07-16T14:03:54.067Z,68.00
2023-07-16T14:06:21.944Z,67.20
2023-07-16T14:08:49.442Z,71.40
2023-07-16T14:11:19.865Z,67.20
2023-07-16T14:13:52.192Z,69.40
2023-07-16T14:16:20.624Z,69.00
2023-07-16T14:18:53.826Z,69.10
2023-07-16T14:21:21.452Z,68.60
2023-07-16T14:23:49.188Z,67.10
2023-07-16T14:26:16.886Z,69.30
2023-07-16T14:28:44.632Z,66.00
2023-07-16T14:31:12.179Z,65.20
2023-07-16T14:33:40.082Z,65.60
2023-07-16T14:36:07.580Z,66.60
2023-07-16T14:38:35.097Z,65.30
2023-07-16T14:41:02.611Z,65.10
2023-07-16T14:43:30.139Z,65.50
2023-07-16T14:45:57.666Z,67.20
2023-07-16T14:48:25.257Z,65.00
2023-07-16T14:50:52.984Z,64.40
2023-07-16T14:53:20.830Z,62.60
2023-07-16T14:55:52.030Z,62.90
2023-07-16T14:58:23.276Z,62.40
2023-07-16T15:00:51.243Z,61.50
2023-07-16T15:03:19.030Z,61.10
2023-07-16T15:05:46.598Z,62.20
2023-07-16T15:08:14.026Z,63.00
2023-07-16T15:10:42.136Z,64.40
2023-07-16T15:13:09.652Z,62.00
2023-07-16T15:15:37.167Z,65.00
2023-07-16T15:18:04.663Z,68.20
2023-07-16T15:20:32.212Z,68.20
2023-07-16T15:22:59.681Z,62.80
2023-07-16T15:25:27.448Z,64.30
2023-07-16T15:27:54.928Z,66.50
2023-07-16T15:30:22.402Z,64.50
2023-07-16T15:32:49.861Z,68.30
2023-07-16T15:35:17.334Z,66.70
2023-07-16T15:37:44.855Z,66.50
2023-07-16T15:40:16.324Z,67.20
2023-07-16T15:42:44.056Z,66.80
2023-07-16T15:45:17.777Z,66.00
2023-07-16T15:47:46.811Z,67.50
2023-07-16T15:50:14.290Z,65.30
2023-07-16T15:52:41.844Z,67.50
2023-07-16T15:55:09.434Z,66.10
2023-07-16T15:57:37.040Z,68.60
2023-07-16T16:00:10.703Z,65.20
2023-07-16T16:02:39.172Z,64.70
2023-07-16T16:05:07.313Z,65.10
2023-07-16T16:07:34.883Z,64.10
2023-07-16T16:10:02.840Z,64.10
2023-07-16T16:12:30.354Z,64.70
2023-07-16T16:14:57.824Z,64.10
2023-07-16T16:17:25.413Z,65.70
2023-07-16T16:19:52.997Z,65.10
2023-07-16T16:22:20.589Z,64.10
2023-07-16T16:24:48.137Z,63.40
2023-07-16T16:27:17.245Z,63.10
2023-07-16T16:29:44.757Z,63.60
2023-07-16T16:32:12.298Z,66.20
2023-07-16T16:34:39.752Z,65.20
2023-07-16T16:37:07.177Z,65.60
2023-07-16T16:39:34.648Z,68.90
2023-07-16T16:42:02.094Z,67.30
2023-07-16T16:44:29.512Z,68.30
2023-07-16T16:46:56.969Z,69.00
2023-07-16T16:49:24.448Z,68.50
2023-07-16T16:51:51.920Z,68.60
2023-07-16T16:54:19.519Z,66.40
2023-07-16T16:56:47.112Z,69.80
2023-07-16T16:59:14.692Z,69.30
2023-07-16T17:01:42.338Z,67.70
2023-07-16T17:04:10.012Z,68.00
2023-07-16T17:06:40.233Z,67.20
2023-07-16T17:09:09.224Z,67.50
2023-07-16T17:11:36.688Z,68.90
2023-07-16T17:14:04.884Z,68.90
2023-07-16T17:16:32.509Z,69.90
2023-07-16T17:19:00.045Z,70.00
2023-07-16T17:21:27.757Z,71.90
2023-07-16T17:23:55.263Z,71.30
2023-07-16T17:26:23.796Z,71.70
2023-07-16T17:28:51.451Z,71.00
2023-07-16T17:31:19.442Z,70.40
2023-07-16T17:33:47.368Z,71.10
2023-07-16T17:36:15.118Z,70.10
2023-07-16T17:38:42.594Z,69.90
2023-07-16T17:41:10.188Z,70.10
2023-07-16T17:43:37.641Z,70.20
2023-07-16T17:46:05.207Z,70.10
2023-07-16T17:48:34.146Z,70.20
2023-07-16T17:51:01.924Z,69.40
2023-07-16T17:53:30.050Z,69.40
2023-07-16T17:55:58.005Z,69.80
2023-07-16T17:58:25.504Z,70.10
2023-07-16T18:00:56.809Z,70.30
2023-07-16T18:03:24.428Z,70.40
2023-07-16T18:05:52.112Z,71.30
2023-07-16T18:08:22.423Z,71.10
2023-07-16T18:10:50.876Z,70.90
2023-07-16T18:13:18.443Z,71.10
2023-07-16T18:15:45.902Z,71.20
2023-07-16T18:18:13.354Z,71.50
2023-07-16T18:20:41.764Z,72.00
2023-07-16T18:23:09.921Z,72.20
2023-07-16T18:25:37.517Z,74.00
2023-07-16T18:28:05.062Z,73.60
2023-07-16T18:30:32.605Z,74.10
2023-07-16T18:33:00.217Z,74.00
2023-07-16T18:35:27.728Z,75.20
2023-07-16T18:37:55.231Z,74.90
2023-07-16T18:40:22.835Z,74.80
2023-07-16T18:42:50.309Z,75.10
2023-07-16T18:45:18.351Z,75.60
2023-07-16T18:47:45.937Z,76.00
2023-07-16T18:50:13.452Z,75.60
2023-07-16T18:52:40.884Z,77.90
2023-07-16T18:55:08.778Z,86.30
2023-07-16T18:57:36.296Z,89.00
2023-07-16T19:00:07.761Z,89.50
2023-07-16T19:02:35.427Z,90.80
2023-07-16T19:05:03.061Z,91.00
2023-07-16T19:07:32.286Z,91.60
2023-07-16T19:09:59.988Z,92.20
2023-07-16T19:12:27.848Z,92.50
2023-07-16T19:14:58.499Z,92.80
2023-07-16T19:17:26.802Z,92.90
2023-07-16T19:19:55.355Z,93.40
2023-07-16T19:22:24.424Z,93.60
2023-07-16T19:24:52.018Z,93.60
2023-07-16T19:27:20.032Z,93.70
2023-07-16T19:29:47.744Z,94.00
2023-07-16T19:32:15.283Z,94.10
2023-07-16T19:34:44.614Z,94.10
2023-07-16T19:37:13.992Z,94.30
2023-07-16T19:39:41.515Z,94.10
2023-07-16T19:42:09.026Z,94.10
2023-07-16T19:44:36.497Z,94.10
2023-07-16T19:47:04.916Z,94.40
2023-07-16T19:49:32.601Z,94.60
2023-07-16T19:52:00.061Z,94.80
2023-07-16T19:54:27.709Z,94.90
2023-07-16T19:56:55.305Z,95.00
2023-07-16T19:59:22.922Z,95.00
2023-07-16T20:01:50.362Z,95.00
2023-07-16T20:04:17.810Z,95.00
2023-07-16T20:06:55.129Z,94.90
2023-07-16T20:09:33.167Z,94.80
2023-07-16T20:12:00.816Z,94.90
2023-07-16T20:14:28.613Z,94.80
2023-07-16T20:16:56.102Z,94.80
2023-07-16T20:19:23.754Z,94.60
2023-07-16T20:21:51.263Z,94.50
2023-07-16T20:24:18.675Z,94.50
2023-07-16T20:26:46.187Z,94.60
2023-07-16T20:29:13.654Z,94.60
2023-07-16T20:31:41.210Z,94.60
2023-07-16T20:34:08.683Z,94.70
2023-07-16T20:36:36.133Z,94.70
2023-07-16T20:39:03.637Z,94.80
2023-07-16T20:41:31.121Z,94.70
2023-07-16T20:43:58.559Z,94.80
2023-07-16T20:46:26.265Z,94.90
2023-07-16T20:48:53.803Z,95.00
2023-07-16T20:51:21.339Z,95.00
2023-07-16T20:53:48.798Z,94.80
2023-07-16T20:56:16.327Z,94.30
2023-07-16T20:58:43.903Z,93.90
2023-07-16T21:01:13.563Z,93.50
2023-07-16T21:03:41.255Z,93.40
2023-07-16T21:06:08.841Z,93.50
2023-07-16T21:08:36.415Z,93.50
2023-07-16T21:11:04.028Z,93.40
2023-07-16T21:13:31.548Z,93.60
2023-07-16T21:15:59.067Z,93.80
2023-07-16T21:18:27.055Z,93.90
2023-07-16T21:20:54.617Z,94.20
2023-07-16T21:23:24.025Z,94.20
2023-07-16T21:25:51.766Z,94.60
2023-07-16T21:28:19.272Z,94.70
2023-07-16T21:30:46.895Z,94.90
2023-07-16T21:33:14.988Z,94.90
2023-07-16T21:35:42.521Z,95.10
2023-07-16T21:38:09.985Z,95.10
2023-07-16T21:40:38.766Z,95.20
2023-07-16T21:43:06.289Z,95.40
2023-07-16T21:45:33.895Z,95.50
2023-07-16T21:48:01.586Z,95.50
2023-07-16T21:50:29.163Z,95.50
2023-07-16T21:52:56.653Z,95.50
2023-07-16T21:55:24.318Z,95.40
2023-07-16T21:57:51.770Z,94.20
2023-07-16T22:00:23.047Z,93.50
2023-07-16T22:02:50.696Z,93.30
2023-07-16T22:05:18.261Z,93.10
2023-07-16T22:07:45.915Z,92.70
2023-07-16T22:10:15.581Z,92.30
2023-07-16T22:12:43.612Z,92.00
2023-07-16T22:15:11.415Z,92.10
2023-07-16T22:17:39.466Z,91.70
2023-07-16T22:20:11.745Z,91.70
2023-07-16T22:22:39.890Z,91.70
2023-07-16T22:25:07.942Z,91.50
2023-07-16T22:27:35.449Z,91.50
2023-07-16T22:30:04.087Z,91.70
2023-07-16T22:32:31.644Z,91.70
2023-07-16T22:34:59.165Z,91.90
2023-07-16T22:37:26.702Z,93.20
2023-07-16T22:39:54.224Z,92.40
2023-07-16T22:42:21.710Z,93.20
2023-07-16T22:44:49.406Z,92.90
2023-07-16T22:47:16.867Z,94.30
2023-07-16T22:49:44.305Z,94.40
2023-07-16T22:52:11.728Z,95.10
2023-07-16T22:54:40.817Z,95.60
2023-07-16T22:57:08.867Z,96.00
2023-07-16T22:59:36.478Z,95.90
2023-07-16T23:02:04.826Z,95.80
2023-07-16T23:04:32.375Z,96.10
2023-07-16T23:06:59.817Z,94.80
2023-07-16T23:09:27.435Z,95.50
2023-07-16T23:11:55.075Z,94.30
2023-07-16T23:14:23.884Z,95.70
2023-07-16T23:16:51.404Z,94.00
2023-07-16T23:19:18.965Z,93.20
2023-07-16T23:21:46.549Z,93.40
2023-07-16T23:24:14.060Z,93.80
2023-07-16T23:26:41.567Z,93.00
2023-07-16T23:29:09.015Z,94.20
2023-07-16T23:31:36.561Z,93.80
2023-07-16T23:34:04.123Z,95.30
2023-07-16T23:36:31.701Z,93.20
2023-07-16T23:38:59.175Z,93.20
2023-07-16T23:41:27.122Z,93.00
2023-07-16T23:43:54.639Z,92.70
2023-07-16T23:46:22.173Z,94.20
2023-07-16T23:48:49.829Z,92.80
2023-07-16T23:51:17.614Z,92.00
2023-07-16T23:53:45.358Z,91.80
2023-07-16T23:56:12.898Z,91.70
2023-07-16T23:58:40.538Z,91.50
